createdAt,value
2018-03-21T00:01:45.724Z,70.22
2018-03-21T00:04:53.452Z,70.38
2018-03-21T00:07:58.565Z,70.81
2018-03-21T00:11:04.156Z,70.97
2018-03-21T00:17:21.048Z,71.32
2018-03-21T00:20:26.059Z,71.69
2018-03-21T00:23:31.033Z,72.31
2018-03-21T00:29:44.766Z,72.50
2018-03-21T00:36:00.672Z,72.48
2018-03-21T00:39:05.942Z,72.98
2018-03-21T00:42:11.493Z,73.57
2018-03-21T00:45:18.227Z,73.90
2018-03-21T00:48:25.303Z,73.87
2018-03-21T00:51:32.704Z,74.08
2018-03-21T00:54:36.811Z,74.32
2018-03-21T00:57:41.615Z,74.16
2018-03-21T01:00:45.968Z,74.21
2018-03-21T01:03:54.245Z,74.44
2018-03-21T01:07:03.284Z,74.76
2018-03-21T01:10:09.864Z,74.69
2018-03-21T01:13:16.901Z,74.70
2018-03-21T01:16:22.244Z,74.52
2018-03-21T01:19:33.593Z,74.60
2018-03-21T01:22:39.102Z,75.04
2018-03-21T01:25:46.944Z,74.82
2018-03-21T01:28:54.122Z,74.79
2018-03-21T01:32:01.801Z,74.63
2018-03-21T01:35:06.482Z,74.55
2018-03-21T01:38:13.121Z,74.53
2018-03-21T01:41:18.854Z,74.76
2018-03-21T01:44:24.117Z,74.71
2018-03-21T01:47:30.194Z,74.62
2018-03-21T01:50:35.538Z,74.93
2018-03-21T01:53:41.629Z,75.03
2018-03-21T01:56:49.570Z,75.09
2018-03-21T01:59:54.393Z,75.10
2018-03-21T02:03:00.929Z,75.36
2018-03-21T02:06:08.904Z,75.53
2018-03-21T02:09:13.108Z,75.64
2018-03-21T02:12:19.645Z,76.04
2018-03-21T02:15:30.012Z,76.00
2018-03-21T02:18:39.222Z,76.20
2018-03-21T02:21:47.621Z,76.65
2018-03-21T02:24:55.686Z,76.81
2018-03-21T02:28:03.130Z,76.84
2018-03-21T02:31:08.617Z,76.86
2018-03-21T02:34:17.583Z,77.03
2018-03-21T02:37:25.782Z,77.56
2018-03-21T02:40:29.357Z,77.76
2018-03-21T02:43:34.660Z,78.03
2018-03-21T02:46:40.168Z,78.43
2018-03-21T02:49:49.325Z,78.08
2018-03-21T02:52:57.623Z,77.77
2018-03-21T02:56:05.004Z,77.59
2018-03-21T02:59:13.658Z,77.59
2018-03-21T03:02:20.734Z,77.53
2018-03-21T03:05:29.846Z,77.41
2018-03-21T03:08:34.662Z,77.29
2018-03-21T03:11:41.733Z,77.29
2018-03-21T03:14:45.763Z,77.36
2018-03-21T03:17:50.901Z,77.52
2018-03-21T03:20:57.666Z,77.52
2018-03-21T03:24:03.906Z,77.69
2018-03-21T03:27:09.074Z,77.76
2018-03-21T03:33:35.875Z,77.93
2018-03-21T03:36:40.690Z,77.71
2018-03-21T03:39:49.175Z,77.79
2018-03-21T03:42:57.324Z,77.83
2018-03-21T03:46:04.051Z,77.92
2018-03-21T03:49:11.607Z,78.11
2018-03-21T03:55:25.348Z,78.68
2018-03-21T03:58:31.199Z,78.85
2018-03-21T04:01:36.357Z,78.90
2018-03-21T04:04:45.355Z,78.83
2018-03-21T04:07:49.170Z,78.73
2018-03-21T04:10:53.419Z,79.17
2018-03-21T04:13:59.368Z,79.47
2018-03-21T04:17:03.796Z,79.62
2018-03-21T04:20:07.227Z,79.89
2018-03-21T04:23:10.741Z,79.84
2018-03-21T04:26:14.769Z,79.93
2018-03-21T04:29:28.401Z,79.82
2018-03-21T04:32:32.623Z,79.78
2018-03-21T04:42:57.720Z,81.18
2018-03-21T04:46:02.366Z,81.33
2018-03-21T04:49:33.024Z,82.21
2018-03-21T04:52:37.469Z,82.75
2018-03-21T04:55:42.746Z,82.73
2018-03-21T05:05:36.708Z,84.93
2018-03-21T05:08:59.681Z,85.84
2018-03-21T05:18:34.277Z,85.76
2018-03-21T05:21:42.770Z,85.62
2018-03-21T05:24:50.589Z,85.37
2018-03-21T05:28:07.829Z,85.20
2018-03-21T05:38:18.814Z,86.55
2018-03-21T05:41:27.613Z,87.10
2018-03-21T05:48:11.756Z,87.66
2018-03-21T05:51:23.222Z,88.12
2018-03-21T06:01:01.756Z,88.29
2018-03-21T06:04:07.661Z,88.26
2018-03-21T06:07:11.854Z,88.37
2018-03-21T06:10:18.673Z,89.17
2018-03-21T06:13:22.985Z,90.34
2018-03-21T06:16:32.294Z,91.23
2018-03-21T06:19:36.162Z,91.14
2018-03-21T06:22:41.613Z,91.10
2018-03-21T06:25:50.589Z,91.01
2018-03-21T06:28:54.721Z,90.94
2018-03-21T06:31:58.136Z,90.97
2018-03-21T06:35:01.892Z,90.94
2018-03-21T06:38:06.446Z,90.88
2018-03-21T06:41:10.279Z,91.01
2018-03-21T06:44:15.568Z,90.93
2018-03-21T06:47:20.828Z,90.73
2018-03-21T06:50:25.161Z,90.50
2018-03-21T06:53:28.553Z,90.64
2018-03-21T06:56:31.938Z,90.79
2018-03-21T06:59:37.946Z,90.71
2018-03-21T07:02:43.628Z,90.81
2018-03-21T07:05:47.623Z,90.44
2018-03-21T07:08:52.557Z,90.19
2018-03-21T07:11:57.975Z,89.93
2018-03-21T07:15:19.625Z,90.01
2018-03-21T07:18:25.100Z,90.25
2018-03-21T07:21:29.661Z,90.42
2018-03-21T07:24:33.113Z,90.09
2018-03-21T07:27:36.596Z,89.68
2018-03-21T07:30:40.428Z,89.47
2018-03-21T07:33:43.980Z,89.31
2018-03-21T07:36:48.468Z,89.34
2018-03-21T07:39:52.527Z,89.32
2018-03-21T07:42:56.017Z,89.36
2018-03-21T07:45:59.457Z,89.63
2018-03-21T07:49:03.420Z,89.57
2018-03-21T07:52:08.144Z,89.93
2018-03-21T07:55:11.592Z,89.97
2018-03-21T07:58:15.110Z,90.06
2018-03-21T08:01:18.534Z,89.70
2018-03-21T08:04:33.743Z,89.62
2018-03-21T08:07:37.231Z,89.59
2018-03-21T08:10:40.696Z,89.45
2018-03-21T08:13:44.228Z,89.39
2018-03-21T08:16:47.724Z,89.59
2018-03-21T08:19:51.224Z,89.58
2018-03-21T08:22:54.736Z,90.08
2018-03-21T08:25:58.319Z,90.20
2018-03-21T08:29:01.811Z,90.52
2018-03-21T08:32:05.265Z,90.70
2018-03-21T08:35:10.646Z,90.98
2018-03-21T08:38:14.052Z,90.69
2018-03-21T08:41:19.920Z,89.74
2018-03-21T08:44:23.428Z,89.45
2018-03-21T08:47:26.961Z,89.36
2018-03-21T08:50:30.325Z,89.22
2018-03-21T08:53:33.652Z,89.12
2018-03-21T08:56:37.067Z,88.09
2018-03-21T08:59:41.003Z,88.13
2018-03-21T09:02:44.605Z,88.33
2018-03-21T09:05:48.304Z,88.56
2018-03-21T09:08:52.593Z,88.01
2018-03-21T09:11:55.964Z,88.52
2018-03-21T09:14:59.268Z,88.60
2018-03-21T09:18:02.604Z,88.46
2018-03-21T09:21:05.911Z,88.75
2018-03-21T09:24:09.246Z,88.49
2018-03-21T09:27:12.576Z,88.65
2018-03-21T09:30:17.664Z,88.54
2018-03-21T09:33:21.743Z,88.69
2018-03-21T09:36:25.051Z,88.97
2018-03-21T09:39:28.400Z,88.17
2018-03-21T09:42:31.784Z,87.73
2018-03-21T09:45:35.121Z,87.50
2018-03-21T09:48:38.465Z,87.47
2018-03-21T09:51:42.638Z,87.34
2018-03-21T09:54:45.961Z,87.46
2018-03-21T09:57:49.320Z,87.45
2018-03-21T10:00:52.624Z,87.07
2018-03-21T10:03:55.947Z,86.50
2018-03-21T10:06:59.258Z,86.95
2018-03-21T10:10:02.596Z,86.41
2018-03-21T10:13:06.348Z,85.74
2018-03-21T10:16:09.671Z,85.66
2018-03-21T10:19:13.007Z,85.80
2018-03-21T10:22:16.322Z,85.07
2018-03-21T10:25:19.660Z,84.91
2018-03-21T10:28:22.990Z,84.66
2018-03-21T10:31:26.303Z,85.14
2018-03-21T10:34:29.639Z,84.84
2018-03-21T10:37:33.755Z,84.43
2018-03-21T10:40:37.066Z,83.60
2018-03-21T10:43:40.391Z,84.28
2018-03-21T10:46:43.690Z,82.94
2018-03-21T10:49:47.026Z,82.19
2018-03-21T10:52:50.339Z,81.81
2018-03-21T10:55:54.427Z,82.11
2018-03-21T10:58:57.734Z,81.35
2018-03-21T11:02:06.417Z,81.58
2018-03-21T11:05:09.647Z,81.37
2018-03-21T11:08:13.021Z,80.94
2018-03-21T11:11:16.279Z,79.54
2018-03-21T11:14:19.611Z,79.22
2018-03-21T11:17:22.915Z,78.95
2018-03-21T11:20:26.257Z,78.10
2018-03-21T11:23:29.555Z,77.68
2018-03-21T11:26:32.872Z,75.86
2018-03-21T11:29:36.202Z,76.56
2018-03-21T11:32:39.499Z,76.27
2018-03-21T11:35:42.814Z,76.14
2018-03-21T11:38:46.111Z,76.31
2018-03-21T11:41:49.432Z,76.08
2018-03-21T11:44:53.524Z,76.18
2018-03-21T11:47:56.828Z,76.12
2018-03-21T11:51:00.906Z,72.60
2018-03-21T11:54:04.243Z,73.30
2018-03-21T11:57:07.560Z,73.13
2018-03-21T12:00:10.904Z,72.66
2018-03-21T12:03:14.210Z,73.26
2018-03-21T12:06:17.526Z,71.68
2018-03-21T12:09:20.827Z,72.34
2018-03-21T12:12:24.908Z,71.21
2018-03-21T12:15:28.228Z,70.08
2018-03-21T12:18:32.978Z,69.67
2018-03-21T12:21:36.313Z,70.24
2018-03-21T12:24:39.607Z,71.78
2018-03-21T12:27:42.922Z,72.57
2018-03-21T12:30:46.221Z,72.20
2018-03-21T12:33:49.552Z,70.54
2018-03-21T12:36:53.622Z,70.46
2018-03-21T12:39:56.958Z,71.22
2018-03-21T12:43:01.027Z,69.80
2018-03-21T12:46:04.342Z,71.29
2018-03-21T12:49:07.663Z,69.79
2018-03-21T12:52:11.723Z,69.96
2018-03-21T12:55:15.036Z,69.06
2018-03-21T12:58:18.336Z,69.54
2018-03-21T13:01:21.650Z,69.03
2018-03-21T13:04:24.997Z,68.27
2018-03-21T13:07:28.308Z,68.38
2018-03-21T13:10:31.618Z,67.32
2018-03-21T13:13:34.985Z,67.77
2018-03-21T13:16:38.259Z,68.37
2018-03-21T13:19:42.405Z,69.25
2018-03-21T13:22:46.443Z,70.03
2018-03-21T13:25:49.758Z,69.97
2018-03-21T13:28:53.063Z,68.52
2018-03-21T13:31:56.387Z,69.45
2018-03-21T13:34:59.704Z,69.81
2018-03-21T13:38:03.032Z,69.14
2018-03-21T13:41:06.353Z,68.44
2018-03-21T13:44:09.647Z,69.17
2018-03-21T13:47:13.730Z,70.08
2018-03-21T13:50:17.038Z,71.14
2018-03-21T13:53:20.408Z,72.02
2018-03-21T13:56:23.727Z,72.28
2018-03-21T13:59:27.036Z,72.30
2018-03-21T14:02:30.343Z,71.78
2018-03-21T14:05:33.663Z,72.09
2018-03-21T14:08:36.964Z,72.09
2018-03-21T14:11:40.347Z,73.42
2018-03-21T14:14:43.604Z,74.47
2018-03-21T14:17:46.926Z,75.07
2018-03-21T14:20:50.244Z,74.70
2018-03-21T14:23:54.327Z,73.99
2018-03-21T14:26:57.648Z,75.20
2018-03-21T14:30:01.789Z,75.39
2018-03-21T14:33:06.680Z,75.38
2018-03-21T14:36:10.283Z,75.43
2018-03-21T14:39:13.631Z,76.19
2018-03-21T14:42:16.931Z,76.33
2018-03-21T14:45:20.263Z,76.56
2018-03-21T14:48:23.576Z,76.66
2018-03-21T14:51:26.898Z,76.97
2018-03-21T14:54:30.218Z,76.84
2018-03-21T14:57:33.548Z,76.36
2018-03-21T15:00:36.880Z,76.62
2018-03-21T15:03:40.223Z,76.47
2018-03-21T15:06:43.535Z,76.59
2018-03-21T15:09:46.863Z,77.13
2018-03-21T15:12:50.960Z,77.41
2018-03-21T15:15:54.291Z,77.53
2018-03-21T15:18:57.608Z,77.81
2018-03-21T15:22:00.981Z,77.35
2018-03-21T15:25:04.312Z,77.93
2018-03-21T15:28:07.628Z,77.80
2018-03-21T15:31:10.958Z,77.64
2018-03-21T15:34:15.916Z,77.67
2018-03-21T15:37:19.222Z,77.62
2018-03-21T15:40:22.559Z,77.53
2018-03-21T15:43:25.870Z,77.64
2018-03-21T15:46:29.194Z,77.83
2018-03-21T15:49:32.504Z,78.05
2018-03-21T15:52:35.819Z,78.06
2018-03-21T15:55:39.128Z,78.08
2018-03-21T15:58:42.453Z,77.66
2018-03-21T16:01:45.781Z,77.36
2018-03-21T16:04:49.092Z,77.46
2018-03-21T16:07:52.412Z,77.70
2018-03-21T16:10:55.734Z,77.91
2018-03-21T16:13:59.060Z,78.17
2018-03-21T16:17:02.360Z,78.02
2018-03-21T16:20:05.687Z,78.33
2018-03-21T16:23:09.289Z,78.41
2018-03-21T16:26:12.640Z,78.40
2018-03-21T16:29:16.716Z,78.16
2018-03-21T16:32:20.051Z,78.55
2018-03-21T16:35:24.149Z,78.86
2018-03-21T16:38:27.452Z,78.99
2018-03-21T16:41:30.795Z,79.21
2018-03-21T16:44:34.138Z,78.94
2018-03-21T16:47:37.468Z,78.52
2018-03-21T16:50:40.779Z,78.92
2018-03-21T16:53:44.130Z,79.35
2018-03-21T16:56:47.440Z,79.67
2018-03-21T16:59:51.535Z,79.32
2018-03-21T17:02:54.838Z,79.21
2018-03-21T17:05:58.159Z,79.21
2018-03-21T17:09:01.481Z,79.53
2018-03-21T17:12:04.807Z,79.69
2018-03-21T17:15:08.107Z,80.24
2018-03-21T17:18:11.435Z,81.44
2018-03-21T17:21:15.494Z,81.87
2018-03-21T17:24:18.818Z,82.66
2018-03-21T17:27:22.120Z,83.25
2018-03-21T17:30:25.455Z,84.04
2018-03-21T17:33:28.754Z,84.53
2018-03-21T17:36:32.078Z,85.26
2018-03-21T17:39:35.379Z,85.65
2018-03-21T17:42:38.708Z,85.51
2018-03-21T17:45:42.017Z,85.64
2018-03-21T17:48:46.119Z,85.67
2018-03-21T17:51:49.429Z,85.86
2018-03-21T17:54:53.512Z,85.84
2018-03-21T17:57:58.448Z,85.89
2018-03-21T18:14:08.890Z,85.44
2018-03-21T18:18:02.400Z,85.41
2018-03-21T18:24:58.688Z,85.29
2018-03-21T18:28:02.128Z,85.24
2018-03-21T18:31:06.164Z,85.77
2018-03-21T18:34:09.503Z,86.26
2018-03-21T18:37:13.736Z,86.17
2018-03-21T18:40:18.243Z,85.94
2018-03-21T18:43:21.644Z,85.81
2018-03-21T18:46:24.973Z,85.56
2018-03-21T18:49:36.591Z,85.13
2018-03-21T18:52:40.756Z,84.00
2018-03-21T18:55:47.115Z,83.59
2018-03-21T18:58:51.663Z,83.78
2018-03-21T19:01:55.031Z,84.34
2018-03-21T19:04:58.358Z,84.75
2018-03-21T19:08:01.757Z,84.79
2018-03-21T19:11:06.075Z,84.66
2018-03-21T19:14:09.528Z,84.57
2018-03-21T19:17:12.900Z,84.71
2018-03-21T19:20:16.252Z,84.84
2018-03-21T19:23:19.675Z,85.08
2018-03-21T19:26:23.208Z,84.70
2018-03-21T19:29:26.592Z,84.64
2018-03-21T19:32:30.061Z,84.50
2018-03-21T19:35:33.435Z,84.89
2018-03-21T19:38:36.857Z,84.94
2018-03-21T19:41:40.291Z,85.06
2018-03-21T19:44:43.717Z,85.15
2018-03-21T19:47:47.162Z,84.94
2018-03-21T19:50:50.564Z,84.92
2018-03-21T19:57:38.571Z,84.07
